createdAt,value
2017-07-03T00:00:30.898Z,12.18
2017-07-03T00:01:30.601Z,12.29
2017-07-03T00:02:30.704Z,12.2
2017-07-03T00:03:43.350Z,12.2
2017-07-03T00:04:30.763Z,12.18
2017-07-03T00:05:30.890Z,12.23
2017-07-03T00:06:30.961Z,12.22
2017-07-03T00:07:30.789Z,12.22
2017-07-03T00:08:31.034Z,12.08
2017-07-03T00:09:30.869Z,12.07
2017-07-03T00:10:30.995Z,12.05
2017-07-03T00:11:30.904Z,12.11
2017-07-03T00:12:30.907Z,12.05
2017-07-03T00:13:31.219Z,12.07
2017-07-03T00:14:31.010Z,12.03
2017-07-03T00:15:31.026Z,11.94
2017-07-03T00:16:31.393Z,11.98
2017-07-03T00:17:31.065Z,12.08
2017-07-03T00:18:31.140Z,11.97
2017-07-03T00:19:31.198Z,11.91
2017-07-03T00:20:31.189Z,11.97
2017-07-03T00:21:31.272Z,11.91
2017-07-03T00:22:31.256Z,11.86
2017-07-03T00:23:31.504Z,11.94
2017-07-03T00:24:31.339Z,12.01
2017-07-03T00:25:31.388Z,11.94
2017-07-03T00:26:31.444Z,11.86
2017-07-03T00:27:31.514Z,11.86
2017-07-03T00:28:31.610Z,11.89
2017-07-03T00:29:31.523Z,11.85
2017-07-03T00:30:31.516Z,11.86
2017-07-03T00:31:31.571Z,11.85
2017-07-03T00:32:31.590Z,11.85
2017-07-03T00:33:31.620Z,12
2017-07-03T00:34:31.651Z,11.97
2017-07-03T00:35:33.101Z,11.94
2017-07-03T00:36:31.778Z,11.91
2017-07-03T00:37:31.710Z,11.94
2017-07-03T00:38:31.781Z,11.97
2017-07-03T00:39:31.810Z,11.95
2017-07-03T00:40:31.820Z,11.94
2017-07-03T00:41:31.938Z,11.94
2017-07-03T00:42:31.907Z,11.98
2017-07-03T00:43:31.916Z,11.84
2017-07-03T00:44:32.168Z,11.84
2017-07-03T00:45:32.040Z,11.76
2017-07-03T00:46:32.055Z,11.79
2017-07-03T00:47:32.054Z,11.82
2017-07-03T00:48:32.078Z,11.88
2017-07-03T00:49:32.127Z,11.85
2017-07-03T00:50:32.334Z,11.79
2017-07-03T00:51:32.195Z,11.78
2017-07-03T00:52:32.231Z,11.82
2017-07-03T00:53:32.244Z,11.76
2017-07-03T00:54:32.313Z,11.78
2017-07-03T00:55:32.301Z,11.82
2017-07-03T00:56:32.326Z,11.79
2017-07-03T00:57:32.410Z,11.68
2017-07-03T00:58:32.409Z,11.73
2017-07-03T00:59:32.671Z,11.81
2017-07-03T01:00:32.482Z,11.78
2017-07-03T01:01:32.802Z,11.7
2017-07-03T01:02:32.539Z,11.73
2017-07-03T01:03:32.571Z,11.68
2017-07-03T01:04:32.675Z,11.7
2017-07-03T01:05:32.648Z,11.71
2017-07-03T01:06:32.647Z,11.73
2017-07-03T01:07:32.924Z,11.68
2017-07-03T01:08:32.737Z,11.7
2017-07-03T01:09:32.994Z,11.67
2017-07-03T01:10:32.792Z,11.68
2017-07-03T01:11:32.820Z,11.64
2017-07-03T01:12:32.868Z,11.59
2017-07-03T01:13:32.878Z,11.61
2017-07-03T01:14:32.900Z,11.6
2017-07-03T01:15:32.938Z,11.48
2017-07-03T01:16:32.987Z,11.63
2017-07-03T01:17:33.076Z,11.59
2017-07-03T01:18:33.428Z,11.52
2017-07-03T01:19:33.126Z,11.48
2017-07-03T01:20:33.127Z,11.49
2017-07-03T01:21:33.133Z,11.51
2017-07-03T01:22:33.183Z,11.43
2017-07-03T01:23:33.329Z,11.33
2017-07-03T01:24:33.286Z,11.52
2017-07-03T01:25:33.266Z,11.48
2017-07-03T01:26:33.317Z,11.34
2017-07-03T01:27:33.365Z,11.31
2017-07-03T01:28:33.523Z,11.33
2017-07-03T01:29:33.386Z,11.31
2017-07-03T01:30:33.662Z,11.38
2017-07-03T01:31:33.466Z,11.26
2017-07-03T01:32:33.465Z,11.27
2017-07-03T01:33:33.515Z,11.27
2017-07-03T01:34:33.584Z,11.24
2017-07-03T01:35:33.606Z,11.2
2017-07-03T01:36:33.634Z,11.15
2017-07-03T01:37:33.645Z,11.2
2017-07-03T01:38:33.661Z,11.18
2017-07-03T01:39:33.672Z,11.18
2017-07-03T01:40:33.769Z,11.21
2017-07-03T01:41:33.771Z,11.13
2017-07-03T01:42:33.818Z,11.15
2017-07-03T01:43:33.845Z,11.15
2017-07-03T01:44:33.899Z,11.18
2017-07-03T01:45:33.896Z,11.13
2017-07-03T01:46:33.902Z,11.2
2017-07-03T01:47:34.013Z,11.2
2017-07-03T01:48:33.999Z,11.18
2017-07-03T01:49:34.019Z,11.13
2017-07-03T01:50:34.045Z,11.13
2017-07-03T01:51:34.125Z,11.16
2017-07-03T01:52:34.226Z,11.15
2017-07-03T01:53:34.135Z,11.21
2017-07-03T01:54:34.199Z,11.16
2017-07-03T01:55:34.467Z,11.2
2017-07-03T01:56:34.243Z,11.16
2017-07-03T01:57:34.311Z,11.16
2017-07-03T01:58:34.933Z,11.27
2017-07-03T01:59:34.331Z,11.18
2017-07-03T02:00:34.348Z,11.2
2017-07-03T02:01:34.467Z,11.18
2017-07-03T02:02:34.676Z,11.16
2017-07-03T02:03:34.489Z,11.18
2017-07-03T02:04:34.481Z,11.16
2017-07-03T02:05:34.564Z,11.18
2017-07-03T02:06:34.585Z,11.16
2017-07-03T02:07:34.608Z,11.16
2017-07-03T02:08:34.626Z,11.16
2017-07-03T02:09:34.671Z,11.18
2017-07-03T02:10:35.101Z,11.16
2017-07-03T02:11:35.175Z,11.18
2017-07-03T02:12:34.782Z,11.16
2017-07-03T02:13:34.838Z,11.16
2017-07-03T02:14:34.819Z,11.23
2017-07-03T02:15:34.869Z,11.23
2017-07-03T02:16:34.999Z,11.18
2017-07-03T02:17:34.894Z,11.16
2017-07-03T02:18:34.976Z,11.2
2017-07-03T02:19:34.971Z,11.18
2017-07-03T02:20:35.006Z,11.12
2017-07-03T02:21:35.095Z,11.18
2017-07-03T02:22:35.053Z,11.16
2017-07-03T02:23:35.208Z,11.18
2017-07-03T02:24:35.142Z,11.16
2017-07-03T02:25:35.430Z,11.13
2017-07-03T02:26:35.215Z,11.12
2017-07-03T02:27:35.211Z,11.13
2017-07-03T02:28:35.249Z,11.12
2017-07-03T02:29:35.316Z,11.12
2017-07-03T02:30:35.308Z,11.08
2017-07-03T02:31:35.374Z,11.1
2017-07-03T02:32:35.402Z,11.05
2017-07-03T02:33:35.422Z,11.09
2017-07-03T02:34:35.474Z,11.08
2017-07-03T02:35:35.483Z,11.13
2017-07-03T02:36:35.571Z,10.98
2017-07-03T02:37:35.521Z,11.15
2017-07-03T02:38:36.154Z,10.95
2017-07-03T02:39:35.605Z,11.09
2017-07-03T02:40:35.976Z,11
2017-07-03T02:41:35.681Z,11.06
2017-07-03T02:42:35.760Z,11.05
2017-07-03T02:43:35.786Z,11.05
2017-07-03T02:44:35.986Z,11.05
2017-07-03T02:45:35.800Z,11.05
2017-07-03T02:46:35.832Z,11.02
2017-07-03T02:47:35.848Z,10.97
2017-07-03T02:48:35.875Z,11.06
2017-07-03T02:49:35.913Z,10.95
2017-07-03T02:50:35.954Z,10.97
2017-07-03T02:51:35.996Z,11
2017-07-03T02:52:36.023Z,10.95
2017-07-03T02:53:36.065Z,11.02
2017-07-03T02:54:36.070Z,10.92
2017-07-03T02:55:36.098Z,10.98
2017-07-03T02:56:36.157Z,10.9
2017-07-03T02:57:36.196Z,10.91
2017-07-03T02:58:36.198Z,10.91
2017-07-03T02:59:36.249Z,10.94
2017-07-03T03:00:36.259Z,10.88
2017-07-03T03:01:36.299Z,11.02
2017-07-03T03:02:36.313Z,10.9
2017-07-03T03:03:36.358Z,10.84
2017-07-03T03:04:36.423Z,10.91
2017-07-03T03:05:36.437Z,10.87
2017-07-03T03:06:36.446Z,10.94
2017-07-03T03:07:36.477Z,10.88
2017-07-03T03:08:36.569Z,10.91
2017-07-03T03:09:36.547Z,10.9
2017-07-03T03:10:36.616Z,10.94
2017-07-03T03:11:36.633Z,10.94
2017-07-03T03:12:36.681Z,10.97
2017-07-03T03:13:36.698Z,10.91
2017-07-03T03:14:36.709Z,10.95
2017-07-03T03:15:36.793Z,10.94
2017-07-03T03:16:36.749Z,11.03
2017-07-03T03:17:36.816Z,10.98
2017-07-03T03:18:36.829Z,10.94
2017-07-03T03:19:36.865Z,11.02
2017-07-03T03:20:36.880Z,11.08
2017-07-03T03:21:36.922Z,10.97
2017-07-03T03:22:36.958Z,11.09
2017-07-03T03:23:37.016Z,11.03
2017-07-03T03:24:37.005Z,11.13
2017-07-03T03:25:37.039Z,11.03
2017-07-03T03:26:37.066Z,11.12
2017-07-03T03:27:37.100Z,11.03
2017-07-03T03:28:37.116Z,11.05
2017-07-03T03:29:37.157Z,11.08
2017-07-03T03:30:37.212Z,11.06
2017-07-03T03:31:37.367Z,11.08
2017-07-03T03:32:37.235Z,11.2
2017-07-03T03:33:37.274Z,11.27
2017-07-03T03:34:37.342Z,11.23
2017-07-03T03:35:37.370Z,11.31
2017-07-03T03:36:37.560Z,11.34
2017-07-03T03:37:37.577Z,11.39
2017-07-03T03:38:37.467Z,11.46
2017-07-03T03:39:37.459Z,11.53
2017-07-03T03:40:37.628Z,11.43
2017-07-03T03:41:37.681Z,11.48
2017-07-03T03:42:37.622Z,11.61
2017-07-03T03:43:37.622Z,11.6
2017-07-03T03:44:37.630Z,11.64
2017-07-03T03:45:37.664Z,11.63
2017-07-03T03:46:37.731Z,11.59
2017-07-03T03:47:37.753Z,11.71
2017-07-03T03:48:37.764Z,11.76
2017-07-03T03:49:37.804Z,11.67
2017-07-03T03:50:37.876Z,11.64
2017-07-03T03:51:37.837Z,11.68
2017-07-03T03:52:37.902Z,11.7
2017-07-03T03:53:37.956Z,11.73
2017-07-03T03:54:37.993Z,11.68
2017-07-03T03:55:37.978Z,11.79
2017-07-03T03:56:38.002Z,11.79
2017-07-03T03:57:38.049Z,11.81
2017-07-03T03:58:38.136Z,11.79
2017-07-03T03:59:38.120Z,11.79
2017-07-03T04:00:38.152Z,11.84
2017-07-03T04:01:38.219Z,11.81
2017-07-03T04:02:38.174Z,11.85
2017-07-03T04:03:38.228Z,11.88
2017-07-03T04:04:38.273Z,11.95
2017-07-03T04:05:38.332Z,12.01
2017-07-03T04:06:38.302Z,11.95
2017-07-03T04:07:38.363Z,12
2017-07-03T04:08:38.422Z,12.03
2017-07-03T04:09:38.429Z,12.05
2017-07-03T04:10:38.462Z,12.18
2017-07-03T04:11:38.515Z,12.22
2017-07-03T04:12:38.528Z,12.26
2017-07-03T04:13:38.575Z,12.34
2017-07-03T04:14:38.585Z,12.47
2017-07-03T04:15:38.642Z,12.65
2017-07-03T04:16:38.648Z,12.78
2017-07-03T04:17:38.715Z,12.95
2017-07-03T04:18:38.742Z,13.07
2017-07-03T04:19:38.795Z,13.48
2017-07-03T04:20:38.776Z,13.73
2017-07-03T04:21:38.826Z,14.09
2017-07-03T04:22:38.936Z,14.63
2017-07-03T04:23:38.864Z,14.94
2017-07-03T04:24:38.925Z,15.55
2017-07-03T04:25:38.975Z,15.92
2017-07-03T04:26:38.965Z,16.18
2017-07-03T04:27:39.141Z,16.51
2017-07-03T04:28:39.028Z,17
2017-07-03T04:29:39.071Z,17.66
2017-07-03T04:30:39.071Z,18.24
2017-07-03T04:31:39.118Z,18.96
2017-07-03T04:32:39.289Z,19.42
2017-07-03T04:33:39.273Z,19.72
2017-07-03T04:34:39.246Z,19.68
2017-07-03T04:35:39.279Z,19.25
2017-07-03T04:36:39.316Z,18.68
2017-07-03T04:37:39.373Z,18.21
2017-07-03T04:38:39.379Z,17.62
2017-07-03T04:39:39.469Z,17.07
2017-07-03T04:40:39.451Z,16.67
2017-07-03T04:41:39.461Z,16.36
2017-07-03T04:42:39.498Z,15.98
2017-07-03T04:43:39.558Z,15.75
2017-07-03T04:44:39.661Z,15.58
2017-07-03T04:45:39.674Z,15.43
2017-07-03T04:46:39.658Z,15.35
2017-07-03T04:47:39.706Z,15.37
2017-07-03T04:48:39.759Z,15.43
2017-07-03T04:49:39.769Z,15.7
2017-07-03T04:50:39.871Z,15.92
2017-07-03T04:51:39.870Z,16.13
2017-07-03T04:52:39.865Z,16.02
2017-07-03T04:53:39.907Z,15.91
2017-07-03T04:54:39.969Z,15.74
2017-07-03T04:55:40.025Z,15.73
2017-07-03T04:56:40.071Z,15.63
2017-07-03T04:57:40.078Z,15.68
2017-07-03T04:58:40.092Z,15.71
2017-07-03T04:59:40.172Z,15.7
2017-07-03T05:00:40.221Z,15.91
2017-07-03T05:01:40.195Z,15.93
2017-07-03T05:02:40.212Z,15.95
2017-07-03T05:03:40.265Z,15.83
2017-07-03T05:04:40.287Z,15.78
2017-07-03T05:05:40.337Z,15.75
2017-07-03T05:06:40.341Z,15.8
2017-07-03T05:07:40.449Z,15.73
2017-07-03T05:08:40.470Z,15.7
2017-07-03T05:09:40.474Z,15.7
2017-07-03T05:10:40.552Z,15.63
2017-07-03T05:11:40.543Z,15.56
2017-07-03T05:12:40.560Z,15.62
2017-07-03T05:13:40.662Z,15.63
2017-07-03T05:14:40.676Z,15.6
2017-07-03T05:15:40.665Z,15.65
2017-07-03T05:16:40.709Z,15.7
2017-07-03T05:17:40.788Z,15.8
2017-07-03T05:18:40.920Z,15.91
2017-07-03T05:19:40.799Z,15.98
2017-07-03T05:20:40.861Z,16.25
2017-07-03T05:21:40.905Z,16.36
2017-07-03T05:22:40.932Z,16.65
2017-07-03T05:23:41.118Z,16.67
2017-07-03T05:24:40.994Z,16.54
2017-07-03T05:25:41.040Z,16.48
2017-07-03T05:26:41.053Z,16.36
2017-07-03T05:27:41.153Z,16.25
2017-07-03T05:28:41.241Z,16.29
2017-07-03T05:29:41.178Z,16.13
2017-07-03T05:30:41.291Z,16.26
2017-07-03T05:31:41.280Z,16.22
2017-07-03T05:32:41.281Z,16.16
2017-07-03T05:33:41.350Z,16.34
2017-07-03T05:34:41.359Z,16.52
2017-07-03T05:35:41.390Z,16.97
2017-07-03T05:36:41.481Z,17.55
2017-07-03T05:37:41.489Z,18.53
2017-07-03T05:38:41.475Z,19.46
2017-07-03T05:39:41.589Z,19.7
2017-07-03T05:40:41.572Z,19.74
2017-07-03T05:41:41.574Z,19.47
2017-07-03T05:42:41.667Z,19.16
2017-07-03T05:43:41.673Z,18.86
2017-07-03T05:44:41.711Z,18.66
2017-07-03T05:45:41.790Z,18.42
2017-07-03T05:46:41.777Z,18.16
2017-07-03T05:47:41.821Z,18.01
2017-07-03T05:48:41.891Z,18.14
2017-07-03T05:49:41.892Z,18.49
2017-07-03T05:50:41.935Z,18.69
2017-07-03T05:51:41.988Z,18.91
2017-07-03T05:52:42.047Z,18.94
2017-07-03T05:53:42.015Z,18.97
2017-07-03T05:54:42.071Z,18.87
2017-07-03T05:55:42.130Z,18.54
2017-07-03T05:56:42.168Z,18.42
2017-07-03T05:57:42.203Z,18.29
2017-07-03T05:58:42.224Z,18.23
2017-07-03T05:59:42.257Z,18.32
2017-07-03T06:00:42.283Z,18.42
2017-07-03T06:01:42.324Z,18.63
2017-07-03T06:02:42.387Z,18.71
2017-07-03T06:03:42.375Z,18.91
2017-07-03T06:04:42.400Z,19.2
2017-07-03T06:05:42.483Z,19.7
2017-07-03T06:06:42.496Z,20.07
2017-07-03T06:07:42.584Z,20.53
2017-07-03T06:08:42.573Z,20.81
2017-07-03T06:09:42.672Z,20.93
2017-07-03T06:10:42.634Z,21.08
2017-07-03T06:11:42.675Z,21.28
2017-07-03T06:12:42.713Z,21.23
2017-07-03T06:13:42.788Z,21.15
2017-07-03T06:14:42.885Z,20.96
2017-07-03T06:15:42.830Z,20.78
2017-07-03T06:16:42.885Z,20.58
2017-07-03T06:17:42.906Z,20.79
2017-07-03T06:18:42.930Z,21.22
2017-07-03T06:19:43.095Z,21.46
2017-07-03T06:20:42.976Z,21.61
2017-07-03T06:21:43.071Z,21.28
2017-07-03T06:22:43.055Z,21.3
2017-07-03T06:23:43.150Z,21.56
2017-07-03T06:24:43.483Z,22.16
2017-07-03T06:25:43.200Z,23.06
2017-07-03T06:26:43.284Z,24.11
2017-07-03T06:27:43.275Z,25.14
2017-07-03T06:28:43.311Z,26.2
2017-07-03T06:29:43.400Z,27.37
2017-07-03T06:30:43.378Z,28.54
2017-07-03T06:31:43.433Z,29.55
2017-07-03T06:32:43.497Z,30.28
2017-07-03T06:33:43.476Z,30.73
2017-07-03T06:34:43.526Z,31.33
2017-07-03T06:35:43.590Z,31.63
2017-07-03T06:36:43.650Z,31.78
2017-07-03T06:37:43.683Z,32.17
2017-07-03T06:38:43.742Z,32.52
2017-07-03T06:39:43.776Z,32.83
2017-07-03T06:40:43.791Z,33.11
2017-07-03T06:41:43.864Z,33.55
2017-07-03T06:42:43.911Z,33.99
2017-07-03T06:43:43.967Z,34.41
2017-07-03T06:44:43.987Z,34.72
2017-07-03T06:45:43.992Z,35.01
2017-07-03T06:46:44.094Z,35.26
2017-07-03T06:47:44.090Z,35.46
2017-07-03T06:48:44.150Z,35.5
2017-07-03T06:49:44.202Z,35.4
2017-07-03T06:50:44.248Z,35.46
2017-07-03T06:51:44.252Z,35.68
2017-07-03T06:52:44.283Z,35.72
2017-07-03T06:53:44.375Z,35.79
2017-07-03T06:54:44.384Z,35.31
2017-07-03T06:55:44.427Z,34.96
2017-07-03T06:56:44.499Z,35.04
2017-07-03T06:57:44.519Z,35.49
2017-07-03T06:58:44.587Z,35.72
2017-07-03T06:59:44.569Z,35.95
2017-07-03T07:00:44.645Z,36.04
2017-07-03T07:01:44.786Z,35.92
2017-07-03T07:02:44.745Z,35.53
2017-07-03T07:03:44.773Z,35.3
2017-07-03T07:04:44.841Z,35.27
2017-07-03T07:05:44.865Z,35.46
2017-07-03T07:06:44.878Z,35.77
2017-07-03T07:07:45.000Z,35.96
2017-07-03T07:08:45.002Z,36.12
2017-07-03T07:09:45.092Z,36.32
2017-07-03T07:10:45.187Z,36.33
2017-07-03T07:11:45.150Z,36.41
2017-07-03T07:12:45.196Z,36.43
2017-07-03T07:13:45.236Z,36.47
2017-07-03T07:14:45.288Z,36.7
2017-07-03T07:15:45.453Z,36.51
2017-07-03T07:16:45.347Z,35.83
2017-07-03T07:17:45.387Z,35.46
2017-07-03T07:18:45.455Z,34.49
2017-07-03T07:19:45.481Z,33.77
2017-07-03T07:20:45.553Z,34
2017-07-03T07:21:45.600Z,34.61
2017-07-03T07:22:45.638Z,35.43
2017-07-03T07:23:45.680Z,35.94
2017-07-03T07:24:45.697Z,36.56
2017-07-03T07:25:45.742Z,37.05
2017-07-03T07:26:45.840Z,37.44
2017-07-03T07:27:45.832Z,37.69
2017-07-03T07:28:45.853Z,37.66
2017-07-03T07:29:45.947Z,37.66
2017-07-03T07:30:45.946Z,36.83
2017-07-03T07:31:45.991Z,35.84
2017-07-03T07:32:46.090Z,35.12
2017-07-03T07:33:46.100Z,33.87
2017-07-03T07:34:46.120Z,32.54
2017-07-03T07:35:46.181Z,32.09
2017-07-03T07:36:46.301Z,31.45
2017-07-03T07:37:46.332Z,30.81
2017-07-03T07:38:46.306Z,30.32
2017-07-03T07:39:46.392Z,30.93
2017-07-03T07:40:46.407Z,31.58
2017-07-03T07:41:46.500Z,32.01
2017-07-03T07:42:46.487Z,31.9
2017-07-03T07:43:46.548Z,31.26
2017-07-03T07:44:46.577Z,30.34
2017-07-03T07:45:46.647Z,29.63
2017-07-03T07:46:46.663Z,28.64
2017-07-03T07:47:46.679Z,27.87
2017-07-03T07:48:46.808Z,27.08
2017-07-03T07:49:46.803Z,26.53
2017-07-03T07:50:46.856Z,25.94
2017-07-03T07:51:46.899Z,26.38
2017-07-03T07:52:46.930Z,27.87
2017-07-03T07:53:46.988Z,29.77
2017-07-03T07:54:47.049Z,31.23
2017-07-03T07:55:47.032Z,32.74
2017-07-03T07:56:47.077Z,34.24
2017-07-03T07:57:47.170Z,35.38
2017-07-03T07:58:47.183Z,36.47
2017-07-03T07:59:47.254Z,36.73
2017-07-03T08:00:47.280Z,35.76
2017-07-03T08:01:47.622Z,35.33
2017-07-03T08:02:47.387Z,35.26
2017-07-03T08:03:47.396Z,34.45
2017-07-03T08:04:47.420Z,34.46
2017-07-03T08:05:47.436Z,35.08
2017-07-03T08:06:47.507Z,35.83
2017-07-03T08:07:47.548Z,36.25
2017-07-03T08:08:47.592Z,36.59
2017-07-03T08:09:47.635Z,36.44
2017-07-03T08:10:47.686Z,36.43
2017-07-03T08:11:47.771Z,36.33
2017-07-03T08:12:47.742Z,35.79
2017-07-03T08:13:47.789Z,34.93
2017-07-03T08:14:47.906Z,34.36
2017-07-03T08:15:47.901Z,33.74
2017-07-03T08:16:48.234Z,32.87
2017-07-03T08:17:48.008Z,31.94
2017-07-03T08:18:48.025Z,31.07
2017-07-03T08:19:48.077Z,31.1
2017-07-03T08:20:48.098Z,31.16
2017-07-03T08:21:48.151Z,31.1
2017-07-03T08:22:48.195Z,31.65
2017-07-03T08:23:48.282Z,32.8
2017-07-03T08:24:48.363Z,33.77
2017-07-03T08:25:48.376Z,34.69
2017-07-03T08:26:48.395Z,35.74
2017-07-03T08:27:48.384Z,36.47
2017-07-03T08:28:48.453Z,37.18
2017-07-03T08:29:48.495Z,37.86
2017-07-03T08:30:48.541Z,38.36
2017-07-03T08:31:48.638Z,37.98
2017-07-03T08:32:48.629Z,37.84
2017-07-03T08:33:48.674Z,38.13
2017-07-03T08:34:48.747Z,38.71
2017-07-03T08:35:48.763Z,39.33
2017-07-03T08:36:48.781Z,40.1
2017-07-03T08:37:48.914Z,40.66
2017-07-03T08:38:48.904Z,41.16
2017-07-03T08:39:48.973Z,41.73
2017-07-03T08:40:49.009Z,41.63
2017-07-03T08:41:49.000Z,41.61
2017-07-03T08:42:49.114Z,41.59
2017-07-03T08:43:49.132Z,41.49
2017-07-03T08:44:49.230Z,41.56
2017-07-03T08:45:49.196Z,41.88
2017-07-03T08:46:49.286Z,42.49
2017-07-03T08:47:49.275Z,42.78
2017-07-03T08:48:49.344Z,42.94
2017-07-03T08:49:49.404Z,43.01
2017-07-03T08:50:49.499Z,43.17
2017-07-03T08:51:49.497Z,43.13
2017-07-03T08:52:49.801Z,42.97
2017-07-03T08:53:49.598Z,42.9
2017-07-03T08:54:49.634Z,42.98
2017-07-03T08:55:49.714Z,42.66
2017-07-03T08:56:49.722Z,41.69
2017-07-03T08:57:49.906Z,41.16
2017-07-03T08:58:49.834Z,40.05
2017-07-03T08:59:49.894Z,39.5
2017-07-03T09:00:49.984Z,39.62
2017-07-03T09:01:50.010Z,40.3
2017-07-03T09:02:50.300Z,40.01
2017-07-03T09:03:50.102Z,39.69
2017-07-03T09:04:50.127Z,38.92
2017-07-03T09:05:50.193Z,37.66
2017-07-03T09:06:50.183Z,36.21
2017-07-03T09:07:50.289Z,34.66
2017-07-03T09:08:50.305Z,33.48
2017-07-03T09:09:50.380Z,33.85
2017-07-03T09:10:50.422Z,34.91
2017-07-03T09:11:50.444Z,36.17
2017-07-03T09:12:50.514Z,37.26
2017-07-03T09:13:50.510Z,38.43
2017-07-03T09:14:50.584Z,39.62
2017-07-03T09:15:50.599Z,40.56
2017-07-03T09:16:50.705Z,41.47
2017-07-03T09:17:50.693Z,41.6
2017-07-03T09:18:50.848Z,41.26
2017-07-03T09:19:50.785Z,41.22
2017-07-03T09:20:50.862Z,40.24
2017-07-03T09:21:50.888Z,40.01
2017-07-03T09:22:51.006Z,40.3
2017-07-03T09:23:50.999Z,40.97
2017-07-03T09:24:51.074Z,41.68
2017-07-03T09:25:51.115Z,41.49
2017-07-03T09:26:51.154Z,40.38
2017-07-03T09:27:51.195Z,38.36
2017-07-03T09:28:51.290Z,37.08
2017-07-03T09:29:51.303Z,37.15
2017-07-03T09:30:51.299Z,37.91
2017-07-03T09:31:51.392Z,38.78
2017-07-03T09:32:51.430Z,39.59
2017-07-03T09:33:51.499Z,40.09
2017-07-03T09:34:51.490Z,40.6
2017-07-03T09:35:51.591Z,41.18
2017-07-03T09:36:51.615Z,41.76
2017-07-03T09:37:51.664Z,41.31
2017-07-03T09:38:51.708Z,40.06
2017-07-03T09:39:51.764Z,38.7
2017-07-03T09:40:51.801Z,38.2
2017-07-03T09:41:51.878Z,38.89
2017-07-03T09:42:51.927Z,40.01
2017-07-03T09:43:51.981Z,40.78
2017-07-03T09:44:52.000Z,41.59
2017-07-03T09:45:52.049Z,42.4
2017-07-03T09:46:52.114Z,42.76
2017-07-03T09:47:52.160Z,42.89
2017-07-03T09:48:52.179Z,42.9
2017-07-03T09:49:52.260Z,42.7
2017-07-03T09:50:52.289Z,42.6
2017-07-03T09:51:52.365Z,42.35
2017-07-03T09:52:52.410Z,42.18
2017-07-03T09:53:52.561Z,42.29
2017-07-03T09:54:52.514Z,42.6
2017-07-03T09:55:52.549Z,43.04
2017-07-03T09:56:52.607Z,43.54
2017-07-03T09:57:52.630Z,43.59
2017-07-03T09:58:52.860Z,43.33
2017-07-03T09:59:52.765Z,43.32
2017-07-03T10:00:52.782Z,43.7
2017-07-03T10:01:52.798Z,43.78
2017-07-03T10:02:52.881Z,43.54
2017-07-03T10:03:53.141Z,43.3
2017-07-03T10:04:53.052Z,43.36
2017-07-03T10:05:53.064Z,43.64
2017-07-03T10:06:53.113Z,44.07
2017-07-03T10:07:53.161Z,44.49
2017-07-03T10:08:53.193Z,44.42
2017-07-03T10:09:53.243Z,43.16
2017-07-03T10:10:53.307Z,42.3
2017-07-03T10:11:53.359Z,40.7
2017-07-03T10:12:53.443Z,40.21
2017-07-03T10:13:53.494Z,40.4
2017-07-03T10:14:53.511Z,41.15
2017-07-03T10:15:53.538Z,41.87
2017-07-03T10:16:53.586Z,41.88
2017-07-03T10:17:53.685Z,42.23
2017-07-03T10:18:53.712Z,42.66
2017-07-03T10:19:53.761Z,43.1
2017-07-03T10:20:53.780Z,43.44
2017-07-03T10:21:53.868Z,43.65
2017-07-03T10:22:53.885Z,43.83
2017-07-03T10:23:53.942Z,43.74
2017-07-03T10:24:53.998Z,43.88
2017-07-03T10:25:54.047Z,43.85
2017-07-03T10:26:54.105Z,43.69
2017-07-03T10:27:54.184Z,43.61
2017-07-03T10:28:54.171Z,43.43
2017-07-03T10:29:54.244Z,43.13
2017-07-03T10:30:54.341Z,42.35
2017-07-03T10:31:54.366Z,42.07
2017-07-03T10:32:54.396Z,41.88
2017-07-03T10:33:54.413Z,40.7
2017-07-03T10:34:54.437Z,39.47
2017-07-03T10:35:54.477Z,39.2
2017-07-03T10:36:54.584Z,39.23
2017-07-03T10:37:54.577Z,39.16
2017-07-03T10:38:54.645Z,39.52
2017-07-03T10:39:54.696Z,40.25
2017-07-03T10:40:54.741Z,41.03
2017-07-03T10:41:54.815Z,41.57
2017-07-03T10:42:54.867Z,42.1
2017-07-03T10:43:54.877Z,42.42
2017-07-03T10:44:54.897Z,42.55
2017-07-03T10:45:55.020Z,42.25
2017-07-03T10:46:54.985Z,42.37
2017-07-03T10:47:55.085Z,42.29
2017-07-03T10:48:55.127Z,42.33
2017-07-03T10:49:55.415Z,42.22
2017-07-03T10:50:55.220Z,42.29
2017-07-03T10:51:55.207Z,42.47
2017-07-03T10:52:55.261Z,42.6
2017-07-03T10:53:55.413Z,42.78
2017-07-03T10:54:55.518Z,42.79
2017-07-03T10:55:55.405Z,42.76
2017-07-03T10:56:55.481Z,42.2
2017-07-03T10:57:55.553Z,40.77
2017-07-03T10:58:55.517Z,39.03
2017-07-03T10:59:55.715Z,37.31
2017-07-03T11:00:55.624Z,35.98
2017-07-03T11:01:55.705Z,34.79
2017-07-03T11:02:55.749Z,33.75
2017-07-03T11:03:55.747Z,33.81
2017-07-03T11:04:55.814Z,34.18
2017-07-03T11:05:55.803Z,34.9
2017-07-03T11:06:55.880Z,35.33
2017-07-03T11:07:55.915Z,35.83
2017-07-03T11:08:55.991Z,36.47
2017-07-03T11:09:55.990Z,36.96
2017-07-03T11:10:56.021Z,37.24
2017-07-03T11:11:56.116Z,37.36
2017-07-03T11:12:56.130Z,37.44
2017-07-03T11:13:56.221Z,37.33
2017-07-03T11:14:56.209Z,36.96
2017-07-03T11:15:56.272Z,36.58
2017-07-03T11:16:56.312Z,35.8
2017-07-03T11:17:56.361Z,34.81
2017-07-03T11:18:56.528Z,34.69
2017-07-03T11:19:56.483Z,34.45
2017-07-03T11:20:56.557Z,34.02
2017-07-03T11:21:56.518Z,33.84
2017-07-03T11:22:56.562Z,34.26
2017-07-03T11:23:56.581Z,34.54
2017-07-03T11:24:56.617Z,35.08
2017-07-03T11:25:56.719Z,35.28
2017-07-03T11:26:56.751Z,35.45
2017-07-03T11:27:56.760Z,35.45
2017-07-03T11:28:56.814Z,35.11
2017-07-03T11:29:56.813Z,35.12
2017-07-03T11:30:56.914Z,35.38
2017-07-03T11:31:56.901Z,35.62
2017-07-03T11:32:56.952Z,35.55
2017-07-03T11:33:57.003Z,35.09
2017-07-03T11:34:57.068Z,34.27
2017-07-03T11:35:57.066Z,33.52
2017-07-03T11:36:57.119Z,32.62
2017-07-03T11:37:57.145Z,31.91
2017-07-03T11:38:57.207Z,31.12
2017-07-03T11:39:57.254Z,30.44
2017-07-03T11:40:57.320Z,29.88
2017-07-03T11:41:57.317Z,29.14
2017-07-03T11:42:57.347Z,28.53
2017-07-03T11:43:57.416Z,28.06
2017-07-03T11:44:57.399Z,27.69
2017-07-03T11:45:57.486Z,27.41
2017-07-03T11:46:57.470Z,27.21
2017-07-03T11:47:57.548Z,27.09
2017-07-03T11:48:57.608Z,26.87
2017-07-03T11:49:57.603Z,26.59
2017-07-03T11:50:57.628Z,26.49
2017-07-03T11:51:57.728Z,26.5
2017-07-03T11:52:57.718Z,26.49
2017-07-03T11:53:57.814Z,26.5
2017-07-03T11:54:57.850Z,26.31
2017-07-03T11:55:58.110Z,26.15
2017-07-03T11:56:57.904Z,25.96
2017-07-03T11:57:57.936Z,25.82
2017-07-03T11:58:58.020Z,25.66
2017-07-03T11:59:58.053Z,25.67
2017-07-03T12:00:58.057Z,25.54
2017-07-03T12:01:58.113Z,25.29
2017-07-03T12:02:58.168Z,25.05
2017-07-03T12:03:58.202Z,24.89
2017-07-03T12:04:58.217Z,24.77
2017-07-03T12:05:58.288Z,24.7
2017-07-03T12:06:58.300Z,24.67
2017-07-03T12:07:58.344Z,24.67
2017-07-03T12:08:58.404Z,24.78
2017-07-03T12:09:58.409Z,24.7
2017-07-03T12:10:58.453Z,24.82
2017-07-03T12:11:58.517Z,24.77
2017-07-03T12:12:58.555Z,24.75
2017-07-03T12:13:58.600Z,24.64
2017-07-03T12:14:58.607Z,24.58
2017-07-03T12:15:58.664Z,24.54
2017-07-03T12:16:58.681Z,24.59
2017-07-03T12:17:58.718Z,24.42
2017-07-03T12:18:58.797Z,24.44
2017-07-03T12:19:58.799Z,24.37
2017-07-03T12:20:58.845Z,24.39
2017-07-03T12:21:58.903Z,24.29
2017-07-03T12:22:58.918Z,24.3
2017-07-03T12:23:58.961Z,24.27
2017-07-03T12:24:59.052Z,24.32
2017-07-03T12:25:59.013Z,24.4
2017-07-03T12:26:59.105Z,24.45
2017-07-03T12:27:59.113Z,24.55
2017-07-03T12:28:59.175Z,24.58
2017-07-03T12:29:59.267Z,24.67
2017-07-03T12:30:59.200Z,24.66
2017-07-03T12:31:59.297Z,24.56
2017-07-03T12:32:59.306Z,24.52
2017-07-03T12:33:59.347Z,24.46
2017-07-03T12:34:59.415Z,24.52
2017-07-03T12:35:59.421Z,24.56
2017-07-03T12:36:59.480Z,24.66
2017-07-03T12:37:59.505Z,24.51
2017-07-03T12:38:59.544Z,24.52
2017-07-03T12:39:59.595Z,24.55
2017-07-03T12:40:59.620Z,24.39
2017-07-03T12:41:59.668Z,24.39
2017-07-03T12:42:59.733Z,24.17
2017-07-03T12:43:59.707Z,24.09
2017-07-03T12:44:59.797Z,23.87
2017-07-03T12:45:59.809Z,23.78
2017-07-03T12:46:59.850Z,23.53
2017-07-03T12:47:59.923Z,23.56
2017-07-03T12:48:59.917Z,23.59
2017-07-03T12:49:59.986Z,23.57
2017-07-03T12:51:00.026Z,23.48
2017-07-03T12:52:00.009Z,23.26
2017-07-03T12:53:00.058Z,23.19
2017-07-03T12:54:00.109Z,23.19
2017-07-03T12:55:00.185Z,23.18
2017-07-03T12:56:00.201Z,23.21